Time;durP1;ratioP1;P1;durP2;ratioP2;P2;SDS_P1;SDS_P2;PMS_P1;PMS_P2;Temp;Humidity;BMP_temperature;BMP_pressure;BME280_temperature;BME280_humidity;BME280_pressure;Samples;Min_cycle;Max_cycle;Signal;HPM_P1;HPM_P2
2022/12/21 00:01:17;;;;;;;6.07;3.70;;;;;;;4.45;73.34;92849.53;2070770;69;20148;-78
2022/12/21 00:03:45;;;;;;;6.43;4.03;;;;;;;4.08;74.79;92849.19;2070678;69;20139;-79
2022/12/21 00:06:12;;;;;;;6.93;4.50;;;;;;;4.13;75.13;92845.44;2070839;69;20251;-75
2022/12/21 00:08:41;;;;;;;8.95;4.97;;;;;;;4.15;74.95;92834.44;2067716;69;20201;-75
2022/12/21 00:11:09;;;;;;;9.75;5.13;;;;;;;4.11;75.16;92820.16;2070772;69;20639;-75
2022/12/21 00:13:35;;;;;;;9.63;4.82;;;;;;;4.26;74.53;92814.53;2070469;69;20160;-76
2022/12/21 00:16:09;;;;;;;8.38;4.35;;;;;;;4.29;74.44;92815.41;2071496;69;20151;-76
2022/12/21 00:18:37;;;;;;;7.72;4.28;;;;;;;4.11;74.80;92816.66;2071620;69;20140;-77
2022/12/21 00:21:21;;;;;;;6.55;3.83;;;;;;;4.23;74.37;92826.78;2071540;69;20175;-76
2022/12/21 00:23:49;;;;;;;4.30;2.80;;;;;;;4.32;74.17;92825.44;2065440;69;20243;-76
2022/12/21 00:26:17;;;;;;;7.13;3.67;;;;;;;4.31;73.82;92840.69;2071446;69;20199;-79
2022/12/21 00:28:43;;;;;;;6.15;3.53;;;;;;;4.40;73.49;92839.31;2071463;69;20231;-75
2022/12/21 00:31:11;;;;;;;4.63;2.63;;;;;;;4.28;73.91;92839.75;2068196;69;20334;-74
2022/12/21 00:33:39;;;;;;;4.20;2.80;;;;;;;4.40;73.45;92839.31;2070358;69;20228;-75
2022/12/21 00:36:06;;;;;;;5.50;3.10;;;;;;;4.47;72.96;92839.25;2071825;69;20230;-75
2022/12/21 00:38:33;;;;;;;5.82;3.40;;;;;;;4.55;72.78;92825.28;2071512;69;20144;-74
2022/12/21 00:41:04;;;;;;;4.90;3.30;;;;;;;4.55;72.58;92823.22;2071589;69;20176;-75
2022/12/21 00:43:37;;;;;;;6.88;3.95;;;;;;;4.49;72.12;92833.13;2071924;69;20155;-74
2022/12/21 00:46:05;;;;;;;6.95;4.13;;;;;;;4.56;71.71;92833.06;2071896;69;20240;-76
2022/12/21 00:48:32;;;;;;;8.25;3.95;;;;;;;4.45;72.27;92827.22;2068573;69;20154;-76
2022/12/21 00:51:09;;;;;;;5.00;3.00;;;;;;;4.57;71.85;92831.00;2071550;69;20144;-74
2022/12/21 00:53:36;;;;;;;5.85;2.85;;;;;;;4.70;71.65;92827.94;2068144;69;20148;-78
2022/12/21 00:56:04;;;;;;;4.32;2.67;;;;;;;4.56;72.79;92823.97;2068267;69;20163;-78
2022/12/21 00:58:31;;;;;;;5.50;2.80;;;;;;;4.70;72.42;92833.53;2071150;69;20168;-77
2022/12/21 01:01:00;;;;;;;4.65;3.03;;;;;;;4.47;73.43;92830.16;2068152;69;20179;-79
2022/12/21 01:03:26;;;;;;;5.93;3.30;;;;;;;4.55;72.83;92828.81;2071741;69;20685;-80
2022/12/21 01:05:54;;;;;;;4.82;2.88;;;;;;;4.65;72.49;92834.50;2068283;69;20153;-77
2022/12/21 01:08:24;;;;;;;5.65;3.00;;;;;;;4.58;71.76;92832.50;2065513;69;20215;-80
2022/12/21 01:10:56;;;;;;;5.72;3.25;;;;;;;4.77;71.62;92824.38;2071542;69;20148;-77
2022/12/21 01:13:23;;;;;;;4.30;3.15;;;;;;;4.72;71.72;92827.38;2071181;69;20249;-77
2022/12/21 01:15:50;;;;;;;5.40;3.30;;;;;;;4.75;71.98;92826.97;2071711;69;20595;-79
2022/12/21 01:18:16;;;;;;;3.88;2.67;;;;;;;4.65;72.35;92826.13;2068098;69;20164;-79
2022/12/21 01:20:45;;;;;;;8.35;4.15;;;;;;;4.69;71.97;92834.09;2068126;69;20172;-76
2022/12/21 01:23:10;;;;;;;7.90;4.25;;;;;;;4.47;72.50;92832.94;2067072;69;20626;-75
2022/12/21 01:25:36;;;;;;;6.88;3.95;;;;;;;4.54;72.64;92838.50;2067632;69;20133;-74
2022/12/21 01:28:02;;;;;;;6.38;3.78;;;;;;;4.53;72.94;92831.41;2068083;69;20578;-75
2022/12/21 01:30:29;;;;;;;6.05;3.20;;;;;;;4.74;71.21;92830.34;2065319;69;20246;-76
2022/12/21 01:32:56;;;;;;;4.00;2.45;;;;;;;4.77;71.87;92832.00;2063869;69;20551;-76
2022/12/21 01:35:22;;;;;;;3.55;2.40;;;;;;;4.66;72.40;92838.03;2064747;69;20140;-76
2022/12/21 01:37:48;;;;;;;6.70;3.70;;;;;;;4.67;72.28;92842.28;2063824;69;20153;-77
2022/12/21 01:40:14;;;;;;;6.72;3.25;;;;;;;4.56;72.67;92847.00;2064909;69;20172;-78
2022/12/21 01:42:40;;;;;;;5.63;3.40;;;;;;;4.66;72.91;92840.81;2064616;69;20551;-76
2022/12/21 01:45:21;;;;;;;4.75;3.13;;;;;;;4.65;72.22;92837.28;2064517;69;20238;-78
2022/12/21 01:47:54;;;;;;;3.47;2.40;;;;;;;4.71;72.74;92837.78;2064973;69;20191;-78
2022/12/21 01:50:26;;;;;;;4.45;2.20;;;;;;;4.76;72.21;92839.59;2064139;69;20249;-76
2022/12/21 01:52:55;;;;;;;4.47;2.78;;;;;;;4.69;72.21;92839.69;2063979;69;20145;-77
2022/12/21 01:55:21;;;;;;;4.10;2.42;;;;;;;4.75;71.70;92843.72;2063865;69;20129;-74
2022/12/21 01:57:49;;;;;;;4.95;2.80;;;;;;;4.77;71.42;92835.53;2063986;69;20149;-77
2022/12/21 02:00:15;;;;;;;5.43;2.90;;;;;;;4.91;70.93;92838.75;2064885;69;20224;-78
2022/12/21 02:02:57;;;;;;;7.13;2.97;;;;;;;4.76;71.85;92827.72;2064311;69;20232;-79
2022/12/21 02:06:02;;;;;;;4.05;2.40;;;;;;;4.81;70.77;92826.72;2064645;69;20165;-80
2022/12/21 02:08:27;;;;;;;4.07;2.58;;;;;;;4.86;70.87;92825.78;2050207;70;20208;-78
2022/12/21 02:10:54;;;;;;;3.60;2.30;;;;;;;4.95;70.08;92818.81;2047327;70;20145;-77
2022/12/21 02:13:22;;;;;;;3.35;2.22;;;;;;;4.93;70.97;92816.59;2047416;70;20190;-79
2022/12/21 02:16:31;;;;;;;4.13;2.10;;;;;;;4.93;71.20;92813.81;2050144;70;20583;-75
2022/12/21 02:19:47;;;;;;;4.05;2.40;;;;;;;4.87;71.56;92818.88;2036904;70;20148;-78
2022/12/21 02:22:39;;;;;;;4.00;2.67;;;;;;;4.68;71.78;92825.00;2033758;70;20354;-76
2022/12/21 02:25:30;;;;;;;4.63;2.67;;;;;;;4.85;71.57;92829.88;2033869;70;20627;-75
2022/12/21 02:28:11;;;;;;;4.22;2.67;;;;;;;4.61;71.77;92825.03;2037022;70;20632;-75
2022/12/21 02:30:54;;;;;;;4.70;2.97;;;;;;;4.53;72.39;92816.72;2039727;70;20163;-74
2022/12/21 02:33:52;;;;;;;4.32;2.55;;;;;;;4.65;72.22;92809.41;2040114;70;20167;-76
2022/12/21 02:36:29;;;;;;;4.88;3.05;;;;;;;4.65;72.13;92798.25;2039964;70;20157;-78
2022/12/21 02:39:32;;;;;;;4.20;2.47;;;;;;;4.70;72.23;92797.25;2040122;70;20238;-77
2022/12/21 02:44:12;;;;;;;4.80;2.97;;;;;;;4.33;73.45;92788.63;2042229;70;20142;-75
2022/12/21 02:45:02;;;;;;;6.95;3.50;;;;;;;4.53;73.05;92803.53;2053965;70;20199;-77
2022/12/21 02:47:38;;;;;;;6.63;3.30;;;;;;;4.64;72.30;92796.03;2053571;70;20605;-77
2022/12/21 02:50:08;;;;;;;7.28;3.28;;;;;;;4.70;72.48;92802.09;2051279;70;20154;-79
2022/12/21 02:52:46;;;;;;;6.35;3.35;;;;;;;4.72;71.99;92814.19;2053924;69;20178;-76
2022/12/21 02:55:13;;;;;;;4.45;3.10;;;;;;;4.77;71.77;92801.31;2055575;69;20181;-79
2022/12/21 02:57:42;;;;;;;5.00;2.50;;;;;;;4.71;72.06;92804.31;2064339;69;20141;-77
2022/12/21 03:00:17;;;;;;;3.20;2.20;;;;;;;4.63;72.28;92803.66;2065681;69;20143;-74
2022/12/21 03:05:54;;;;;;;4.45;2.50;;;;;;;4.61;72.86;92819.47;2064757;69;20549;-78
2022/12/21 03:09:02;;;;;;;5.50;2.88;;;;;;;4.52;73.04;92829.94;2066987;69;20293;-74
2022/12/21 03:12:11;;;;;;;4.85;3.00;;;;;;;4.36;73.27;92809.06;2064022;69;20169;-74
2022/12/21 03:14:48;;;;;;;5.60;3.25;;;;;;;4.05;74.61;92812.03;2058729;69;20140;-74
2022/12/21 03:17:23;;;;;;;5.10;2.90;;;;;;;4.08;74.79;92815.75;2064102;69;20176;-79
2022/12/21 03:19:54;;;;;;;6.88;3.08;;;;;;;4.15;74.40;92814.22;2064286;69;20156;-79
2022/12/21 03:22:41;;;;;;;5.03;3.10;;;;;;;4.22;74.21;92810.66;2066669;69;20179;-73
2022/12/21 03:25:33;;;;;;;5.30;2.90;;;;;;;4.19;73.84;92806.94;2063919;69;20289;-74
2022/12/21 03:28:05;;;;;;;6.10;3.13;;;;;;;4.16;73.75;92808.06;2064409;69;20163;-74
2022/12/21 03:30:37;;;;;;;6.05;3.60;;;;;;;4.15;73.96;92809.38;2070455;69;20269;-74
2022/12/21 03:33:05;;;;;;;4.47;3.10;;;;;;;4.15;73.91;92817.00;2067930;69;20141;-73
2022/12/21 03:35:40;;;;;;;8.70;3.03;;;;;;;4.06;74.36;92813.50;2070991;69;20148;-73
2022/12/21 03:38:14;;;;;;;4.93;3.00;;;;;;;4.02;74.64;92809.63;2071230;69;20568;-74
2022/12/21 03:40:45;;;;;;;6.78;3.65;;;;;;;4.05;73.82;92808.50;2071206;69;20224;-74
2022/12/21 03:43:23;;;;;;;5.38;3.10;;;;;;;4.07;74.33;92811.47;2071300;69;20148;-74
2022/12/21 03:45:55;;;;;;;4.60;2.53;;;;;;;4.08;74.31;92808.13;2071154;69;20152;-75
2022/12/21 03:48:28;;;;;;;3.63;2.53;;;;;;;4.05;74.25;92819.66;2067720;69;20144;-76
2022/12/21 03:50:56;;;;;;;5.13;3.28;;;;;;;3.52;76.69;92815.06;2067802;69;20216;-74
2022/12/21 03:53:49;;;;;;;4.80;3.03;;;;;;;3.79;75.40;92810.50;2071196;69;20164;-75
2022/12/21 03:56:26;;;;;;;4.05;2.75;;;;;;;3.82;75.16;92801.00;2071121;69;20226;-75
2022/12/21 03:58:52;;;;;;;7.40;2.70;;;;;;;3.82;75.13;92806.59;2071230;69;20144;-75
2022/12/21 04:01:36;;;;;;;5.60;3.35;;;;;;;3.83;75.11;92810.84;2071201;69;20135;-74
2022/12/21 04:04:19;;;;;;;3.88;2.90;;;;;;;3.84;75.26;92797.66;2071028;69;20317;-74
2022/12/21 04:06:47;;;;;;;5.47;3.55;;;;;;;3.84;75.08;92800.44;2071203;69;20253;-76
2022/12/21 04:09:12;;;;;;;9.75;3.83;;;;;;;3.89;75.45;92802.28;2071011;69;20152;-74
2022/12/21 04:14:22;;;;;;;16.25;7.40;;;;;;;3.88;74.92;92794.50;2070474;69;20158;-74
2022/12/21 04:16:48;;;;;;;17.98;9.48;;;;;;;3.88;75.46;92789.66;2067292;69;20140;-75
2022/12/21 04:21:58;;;;;;;10.07;5.95;;;;;;;3.75;75.67;92793.44;2071218;69;20567;-76
2022/12/21 04:29:56;;;;;;;8.02;5.30;;;;;;;3.59;76.02;92780.16;2067817;69;20152;-75
2022/12/21 04:32:23;;;;;;;12.18;7.18;;;;;;;3.50;75.77;92776.66;2067176;69;20280;-75
2022/12/21 04:34:48;;;;;;;9.75;6.18;;;;;;;3.66;75.63;92782.91;2067778;69;20156;-77
2022/12/21 04:37:33;;;;;;;9.48;5.90;;;;;;;3.73;75.36;92796.03;2067780;69;20176;-77
2022/12/21 04:39:59;;;;;;;12.02;5.93;;;;;;;3.47;76.01;92765.91;2067485;69;20152;-77
2022/12/21 04:42:25;;;;;;;10.27;5.35;;;;;;;3.52;75.86;92784.44;2067807;69;20171;-76
2022/12/21 04:44:51;;;;;;;8.30;3.80;;;;;;;3.13;76.42;92788.69;2067701;69;20227;-75
2022/12/21 04:47:18;;;;;;;9.27;4.07;;;;;;;3.32;76.24;92780.63;2067713;69;20173;-75
2022/12/21 04:49:43;;;;;;;7.10;3.90;;;;;;;3.34;76.24;92791.19;2068760;69;20167;-75
2022/12/21 04:52:09;;;;;;;7.55;4.10;;;;;;;3.09;76.69;92793.88;2071047;69;20202;-75
2022/12/21 04:54:35;;;;;;;10.10;5.10;;;;;;;3.15;77.57;92795.16;2070921;69;20171;-75
2022/12/21 04:57:00;;;;;;;12.23;5.10;;;;;;;3.32;76.53;92791.75;2070905;69;20143;-75
2022/12/21 04:59:26;;;;;;;9.65;5.68;;;;;;;3.25;76.71;92790.50;2070931;69;20140;-76
2022/12/21 05:01:52;;;;;;;10.75;5.80;;;;;;;3.30;76.67;92788.81;2067955;69;20168;-77
2022/12/21 05:04:18;;;;;;;12.48;5.90;;;;;;;3.40;75.94;92792.47;2071786;69;20151;-77
2022/12/21 05:06:44;;;;;;;9.75;5.35;;;;;;;3.38;76.68;92788.78;2071232;69;20140;-77
2022/12/21 05:09:13;;;;;;;9.90;5.50;;;;;;;3.37;76.89;92781.72;2071609;69;20148;-76
2022/12/21 05:11:42;;;;;;;10.45;5.93;;;;;;;3.35;76.32;92795.47;2071622;69;20124;-76
2022/12/21 05:14:07;;;;;;;11.13;6.10;;;;;;;3.26;76.47;92791.97;2068145;69;20148;-76
2022/12/21 05:16:34;;;;;;;10.93;6.65;;;;;;;3.41;76.68;92796.75;2071754;69;20674;-77
2022/12/21 05:19:00;;;;;;;15.85;7.45;;;;;;;3.41;76.25;92793.97;2071730;69;20147;-76
2022/12/21 05:21:26;;;;;;;14.02;7.30;;;;;;;3.38;75.98;92792.28;2071744;69;20148;-75
2022/12/21 05:23:52;;;;;;;11.85;6.63;;;;;;;3.26;76.66;92783.63;2068339;69;20168;-76
2022/12/21 05:26:18;;;;;;;11.93;6.10;;;;;;;3.37;75.81;92798.44;2071813;69;20144;-76
2022/12/21 05:28:45;;;;;;;9.93;5.93;;;;;;;3.34;75.82;92786.38;2070595;69;20569;-76
2022/12/21 05:31:11;;;;;;;10.93;6.10;;;;;;;3.14;75.88;92796.44;2064850;69;20181;-75
2022/12/21 05:33:37;;;;;;;9.63;5.82;;;;;;;3.30;76.69;92800.69;2064813;69;20556;-75
2022/12/21 05:36:08;;;;;;;21.40;10.82;;;;;;;3.15;76.79;92789.59;2064036;69;20492;-75
2022/12/21 05:38:34;;;;;;;26.63;12.98;;;;;;;3.13;77.56;92799.81;2064736;69;20156;-75
2022/12/21 05:41:00;;;;;;;19.27;10.15;;;;;;;3.23;77.19;92800.69;2064735;69;20153;-75
2022/12/21 05:43:26;;;;;;;21.50;9.65;;;;;;;3.21;76.50;92787.34;2064055;69;20149;-75
2022/12/21 05:45:52;;;;;;;24.70;11.18;;;;;;;3.22;76.55;92799.22;2064211;69;20156;-75
2022/12/21 05:48:18;;;;;;;22.45;11.90;;;;;;;3.24;75.90;92797.34;2064292;69;20618;-76
2022/12/21 05:50:44;;;;;;;19.30;10.63;;;;;;;3.20;77.16;92796.25;2064528;69;20225;-77
2022/12/21 05:53:09;;;;;;;27.70;13.50;;;;;;;3.17;77.13;92809.25;2064766;69;20250;-76
2022/12/21 05:55:36;;;;;;;23.92;12.80;;;;;;;3.29;76.49;92804.75;2064613;69;20606;-77
2022/12/21 05:58:02;;;;;;;26.08;11.52;;;;;;;3.23;76.90;92804.22;2064576;69;20133;-76
2022/12/21 06:00:28;;;;;;;20.85;10.73;;;;;;;3.24;76.95;92810.53;2064932;69;20267;-76
2022/12/21 06:02:53;;;;;;;17.65;9.70;;;;;;;3.38;76.82;92799.91;2064819;69;20145;-77
2022/12/21 06:05:19;;;;;;;19.48;11.40;;;;;;;3.32;76.74;92797.34;2064894;69;20137;-77
2022/12/21 06:07:45;;;;;;;30.35;15.07;;;;;;;3.26;77.19;92803.09;2064888;69;20165;-77
2022/12/21 06:10:11;;;;;;;22.65;11.85;;;;;;;3.21;77.33;92808.88;2064173;69;20140;-76
2022/12/21 06:12:37;;;;;;;26.08;13.35;;;;;;;3.27;76.72;92801.06;2064839;69;20200;-77
2022/12/21 06:15:02;;;;;;;24.90;13.52;;;;;;;3.22;77.10;92805.53;2064186;69;20571;-77
2022/12/21 06:17:29;;;;;;;26.80;13.75;;;;;;;3.26;77.08;92805.16;2064174;69;20164;-76
2022/12/21 06:19:56;;;;;;;28.17;16.15;;;;;;;3.36;76.97;92805.31;2064213;69;20191;-76
2022/12/21 06:22:21;;;;;;;27.75;15.55;;;;;;;3.31;77.05;92813.28;2064804;69;20145;-77
2022/12/21 06:24:47;;;;;;;27.70;15.40;;;;;;;3.43;76.71;92812.88;2060834;69;20511;-77
2022/12/21 06:27:12;;;;;;;22.13;14.00;;;;;;;3.45;77.25;92822.16;2064342;69;20554;-77
2022/12/21 06:29:38;;;;;;;18.92;12.38;;;;;;;3.48;76.88;92825.84;2064776;69;20196;-76
2022/12/21 06:32:04;;;;;;;22.58;13.68;;;;;;;3.45;76.73;92821.41;2064814;69;20586;-76
2022/12/21 06:34:30;;;;;;;50.78;21.90;;;;;;;3.05;77.66;92810.94;2064872;69;20148;-77
2022/12/21 06:36:55;;;;;;;123.25;44.47;;;;;;;3.31;77.55;92807.00;2064844;69;20471;-77
2022/12/21 06:39:21;;;;;;;57.38;24.30;;;;;;;3.32;77.35;92802.91;2064902;69;20511;-77
2022/12/21 06:41:46;;;;;;;88.82;37.00;;;;;;;3.41;77.25;92798.78;2064808;69;20587;-76
2022/12/21 06:44:12;;;;;;;76.82;32.65;;;;;;;3.45;77.45;92801.94;2064824;69;20206;-77
2022/12/21 06:46:38;;;;;;;102.15;41.40;;;;;;;3.49;77.06;92805.81;2064270;69;20198;-78
2022/12/21 06:49:03;;;;;;;104.25;43.60;;;;;;;3.49;76.96;92802.28;2064371;69;20200;-78
2022/12/21 06:51:32;;;;;;;67.53;32.08;;;;;;;3.64;76.41;92804.25;2064840;69;20141;-78
2022/12/21 06:53:57;;;;;;;49.65;24.60;;;;;;;3.65;76.36;92800.16;2064764;69;20156;-78
2022/12/21 06:56:26;;;;;;;29.98;16.70;;;;;;;3.70;76.72;92793.66;2061423;69;20153;-76
2022/12/21 06:58:54;;;;;;;37.05;21.10;;;;;;;3.78;75.60;92797.13;2064904;69;20214;-76
2022/12/21 07:01:26;;;;;;;42.58;22.73;;;;;;;3.76;76.02;92802.53;2064920;69;20188;-76
2022/12/21 07:03:52;;;;;;;39.17;20.85;;;;;;;3.72;76.27;92794.56;2064420;69;20173;-77
2022/12/21 07:06:19;;;;;;;39.63;19.33;;;;;;;3.82;75.99;92791.94;2065066;69;20606;-77
2022/12/21 07:08:45;;;;;;;30.40;17.60;;;;;;;3.70;76.40;92799.94;2064916;69;20185;-77
2022/12/21 07:11:13;;;;;;;28.60;14.13;;;;;;;3.72;76.19;92789.00;2064879;69;20153;-77
2022/12/21 07:13:41;;;;;;;32.20;17.67;;;;;;;3.55;77.34;92795.19;2065028;69;20405;-77
2022/12/21 07:16:08;;;;;;;33.00;17.90;;;;;;;3.64;76.88;92798.69;2065055;69;20152;-77
2022/12/21 07:18:34;;;;;;;32.10;17.08;;;;;;;3.75;76.36;92803.81;2065163;69;20669;-77
2022/12/21 07:21:05;;;;;;;28.25;15.40;;;;;;;3.78;76.35;92806.22;2065676;69;20148;-77
2022/12/21 07:23:36;;;;;;;36.28;15.98;;;;;;;3.40;77.91;92800.84;2068269;69;20145;-76
2022/12/21 07:26:06;;;;;;;32.80;17.10;;;;;;;3.55;77.17;92817.47;2068722;69;20185;-76
2022/12/21 07:28:31;;;;;;;29.52;17.15;;;;;;;3.55;77.20;92822.31;2068005;69;20149;-77
2022/12/21 07:31:08;;;;;;;35.65;18.88;;;;;;;3.58;77.05;92817.66;2065486;69;20189;-77
2022/12/21 07:33:35;;;;;;;36.40;18.42;;;;;;;3.56;77.11;92826.56;2065153;69;20137;-78
2022/12/21 07:36:03;;;;;;;40.40;19.15;;;;;;;3.61;77.30;92833.97;2064918;69;20152;-77
2022/12/21 07:38:31;;;;;;;45.63;22.27;;;;;;;3.64;76.96;92843.97;2064831;69;20156;-77
2022/12/21 07:41:02;;;;;;;42.03;23.90;;;;;;;3.53;77.50;92841.63;2064758;69;20160;-75
2022/12/21 07:43:28;;;;;;;57.85;33.42;;;;;;;3.59;77.66;92844.19;2064657;69;20544;-75
2022/12/21 07:46:10;;;;;;;51.17;27.73;;;;;;;3.69;77.45;92836.72;2064668;69;20670;-75
2022/12/21 07:48:36;;;;;;;43.20;25.75;;;;;;;3.76;77.30;92838.75;2064731;69;20562;-76
2022/12/21 07:51:03;;;;;;;52.58;27.73;;;;;;;3.75;77.57;92849.13;2064694;69;20197;-78
2022/12/21 07:53:29;;;;;;;45.60;27.10;;;;;;;3.79;77.35;92832.78;2064110;69;20148;-77
2022/12/21 07:56:07;;;;;;;47.00;26.63;;;;;;;3.73;77.33;92845.44;2064430;69;20175;-77
2022/12/21 07:58:34;;;;;;;42.75;26.13;;;;;;;3.70;78.06;92832.63;2064696;69;20611;-78
2022/12/21 08:01:11;;;;;;;48.95;27.15;;;;;;;3.83;77.58;92829.59;2064609;69;20148;-78
2022/12/21 08:03:38;;;;;;;40.88;24.27;;;;;;;3.95;77.27;92833.44;2064961;69;20248;-79
2022/12/21 08:06:06;;;;;;;30.77;18.08;;;;;;;4.04;76.74;92829.31;2064673;69;20141;-77
2022/12/21 08:08:32;;;;;;;30.90;16.85;;;;;;;3.98;77.16;92835.09;2064556;69;20156;-78
2022/12/21 08:10:57;;;;;;;32.95;18.27;;;;;;;3.98;76.84;92843.44;2064679;69;20184;-78
2022/12/21 08:13:24;;;;;;;26.80;16.92;;;;;;;3.96;77.07;92864.81;2064565;69;20218;-76
2022/12/21 08:15:58;;;;;;;24.38;15.50;;;;;;;4.04;76.94;92871.13;2064518;69;20225;-75
2022/12/21 08:18:24;;;;;;;29.60;16.05;;;;;;;4.05;76.97;92878.16;2064745;69;20144;-76
2022/12/21 08:20:49;;;;;;;38.60;18.52;;;;;;;4.01;76.64;92878.53;2064614;69;20164;-77
2022/12/21 08:23:15;;;;;;;32.13;17.83;;;;;;;3.96;76.97;92887.13;2064527;69;20165;-77
2022/12/21 08:25:41;;;;;;;31.25;19.83;;;;;;;4.01;77.07;92891.72;2064379;69;20184;-75
2022/12/21 08:28:06;;;;;;;30.17;18.10;;;;;;;4.03;76.81;92884.31;2064634;69;20142;-76
2022/12/21 08:30:33;;;;;;;30.58;17.52;;;;;;;4.04;77.02;92887.84;2064402;69;20145;-75
2022/12/21 08:32:59;;;;;;;27.58;17.58;;;;;;;4.03;77.12;92877.97;2064671;69;20149;-77
2022/12/21 08:35:28;;;;;;;23.83;14.98;;;;;;;4.03;77.08;92864.03;2064776;69;20207;-75
2022/12/21 08:37:53;;;;;;;21.02;10.57;;;;;;;4.05;77.15;92862.19;2065007;69;20157;-76
2022/12/21 08:40:19;;;;;;;15.43;8.93;;;;;;;4.08;76.80;92851.97;2064922;69;20181;-78
2022/12/21 08:42:45;;;;;;;5.50;3.53;;;;;;;4.28;76.26;92850.91;2064458;69;20163;-77
2022/12/21 08:45:10;;;;;;;10.73;4.60;;;;;;;4.44;74.87;92850.81;2065139;69;20578;-77
2022/12/21 08:47:36;;;;;;;7.50;4.53;;;;;;;4.59;73.77;92854.25;2064960;69;20206;-77
2022/12/21 08:50:03;;;;;;;13.07;7.10;;;;;;;4.41;73.87;92861.06;2065020;69;20144;-75
2022/12/21 08:52:28;;;;;;;22.55;12.93;;;;;;;4.46;74.88;92867.72;2065278;69;20193;-77
2022/12/21 08:54:54;;;;;;;18.85;10.38;;;;;;;4.55;74.95;92858.75;2064867;69;20301;-75
2022/12/21 08:57:20;;;;;;;14.85;7.53;;;;;;;4.66;74.84;92865.91;2065291;69;20164;-76
2022/12/21 08:59:46;;;;;;;7.00;4.22;;;;;;;4.76;74.26;92867.50;2065266;69;20141;-77
2022/12/21 09:02:12;;;;;;;16.65;8.27;;;;;;;4.69;75.16;92871.09;2065134;69;20152;-76
2022/12/21 09:04:37;;;;;;;25.98;14.38;;;;;;;4.77;74.75;92871.03;2065078;69;20597;-77
2022/12/21 09:07:03;;;;;;;26.85;13.10;;;;;;;5.04;73.63;92871.19;2065087;69;20180;-75
2022/12/21 09:09:28;;;;;;;13.80;7.45;;;;;;;5.18;73.16;92869.59;2065187;69;20188;-77
2022/12/21 09:11:54;;;;;;;12.77;6.93;;;;;;;5.39;72.97;92866.41;2064972;69;20149;-77
2022/12/21 09:14:20;;;;;;;10.77;6.43;;;;;;;5.51;71.49;92870.19;2065037;69;20145;-76
2022/12/21 09:16:46;;;;;;;12.77;7.75;;;;;;;5.34;72.67;92865.31;2065230;69;20165;-77
2022/12/21 09:19:12;;;;;;;15.65;8.75;;;;;;;5.54;72.34;92855.09;2064927;69;20638;-77
2022/12/21 09:21:37;;;;;;;14.95;8.70;;;;;;;5.58;70.97;92854.66;2064434;69;20157;-78
2022/12/21 09:24:04;;;;;;;16.48;7.70;;;;;;;5.61;71.60;92853.53;2064244;69;20145;-77
2022/12/21 09:26:29;;;;;;;12.75;7.30;;;;;;;5.75;71.64;92859.50;2065048;69;20235;-76
2022/12/21 09:28:55;;;;;;;16.40;8.05;;;;;;;5.80;71.65;92862.06;2064812;69;20535;-77
2022/12/21 09:31:21;;;;;;;27.17;12.80;;;;;;;5.79;70.43;92849.41;2064905;69;20156;-76
2022/12/21 09:33:47;;;;;;;33.15;16.80;;;;;;;5.81;71.06;92863.53;2064966;69;20199;-77
2022/12/21 09:36:14;;;;;;;25.60;13.40;;;;;;;5.92;71.11;92858.81;2064809;69;20149;-76
2022/12/21 09:38:40;;;;;;;20.67;11.07;;;;;;;5.82;70.67;92856.66;2064860;69;20586;-77
2022/12/21 09:41:05;;;;;;;11.50;6.50;;;;;;;5.89;70.17;92849.47;2064913;69;20191;-77
2022/12/21 09:43:46;;;;;;;10.70;5.00;;;;;;;6.07;70.42;92853.00;2064832;69;20548;-77
2022/12/21 09:46:14;;;;;;;16.75;10.57;;;;;;;5.60;71.30;92852.78;2064907;69;20580;-77
2022/12/21 09:48:50;;;;;;;20.98;10.00;;;;;;;5.63;71.97;92842.50;2064245;69;20488;-77
2022/12/21 09:51:22;;;;;;;20.23;10.40;;;;;;;5.95;71.26;92849.25;2061705;69;20185;-75
2022/12/21 09:54:19;;;;;;;20.33;10.52;;;;;;;5.98;71.17;92842.50;2064980;69;20523;-75
2022/12/21 09:56:50;;;;;;;23.58;10.45;;;;;;;5.94;71.12;92839.38;2057301;69;20149;-74
2022/12/21 09:59:20;;;;;;;19.80;10.45;;;;;;;5.78;70.83;92838.81;2064871;69;20145;-75
2022/12/21 10:02:04;;;;;;;27.02;12.18;;;;;;;5.81;71.73;92837.66;2064788;69;20164;-74
2022/12/21 10:04:58;;;;;;;18.67;10.05;;;;;;;5.96;71.20;92836.78;2064829;69;20231;-75
2022/12/21 10:07:26;;;;;;;18.75;10.05;;;;;;;5.82;70.87;92828.72;2064918;69;20145;-77
2022/12/21 10:10:14;;;;;;;21.02;11.07;;;;;;;5.77;70.85;92834.53;2065000;69;20180;-74
2022/12/21 10:13:14;;;;;;;20.40;10.95;;;;;;;5.75;71.79;92826.00;2064753;69;20141;-74
2022/12/21 10:16:02;;;;;;;30.13;14.98;;;;;;;5.74;71.25;92836.44;2065022;69;20149;-74
2022/12/21 10:18:36;;;;;;;26.98;13.93;;;;;;;5.74;71.68;92830.13;2064808;69;20133;-75
2022/12/21 10:21:20;;;;;;;34.25;13.45;;;;;;;5.88;71.38;92828.44;2064728;69;20159;-75
2022/12/21 10:23:50;;;;;;;28.02;13.68;;;;;;;5.82;71.30;92823.13;2064231;69;20168;-75
2022/12/21 10:26:22;;;;;;;26.17;13.95;;;;;;;5.92;71.64;92819.69;2064887;69;20173;-75
2022/12/21 10:28:51;;;;;;;95.83;52.37;;;;;;;5.99;70.95;92810.44;2064781;69;20157;-75
2022/12/21 10:31:27;;;;;;;60.85;36.00;;;;;;;6.04;70.72;92804.59;2064737;69;20246;-75
2022/12/21 10:33:55;;;;;;;38.80;23.60;;;;;;;6.13;70.95;92800.38;2064798;69;20165;-76
2022/12/21 10:36:31;;;;;;;20.60;11.90;;;;;;;6.31;71.84;92803.88;2064861;69;20566;-76
2022/12/21 10:38:57;;;;;;;25.60;14.63;;;;;;;6.40;70.59;92794.06;2064838;69;20160;-76
2022/12/21 10:41:38;;;;;;;52.78;28.60;;;;;;;6.02;70.91;92803.72;2064771;69;20141;-76
2022/12/21 10:44:04;;;;;;;47.78;27.30;;;;;;;6.28;71.55;92800.19;2064998;69;20211;-77
2022/12/21 10:46:34;;;;;;;36.05;20.50;;;;;;;6.26;70.29;92797.22;2064912;69;20237;-76
2022/12/21 10:49:23;;;;;;;26.60;14.35;;;;;;;5.62;71.65;92799.13;2064668;69;20603;-76
2022/12/21 10:51:49;;;;;;;24.42;13.98;;;;;;;6.12;71.12;92796.13;2064728;69;20199;-76
2022/12/21 10:54:24;;;;;;;26.48;14.15;;;;;;;6.26;71.03;92783.25;2064659;69;20210;-75
2022/12/21 10:56:51;;;;;;;25.77;14.32;;;;;;;6.41;70.48;92784.34;2064652;69;20148;-76
2022/12/21 10:59:26;;;;;;;27.88;15.13;;;;;;;6.63;70.53;92777.66;2064481;69;20239;-76
2022/12/21 11:01:52;;;;;;;26.42;15.15;;;;;;;6.77;69.90;92778.72;2064720;69;20206;-76
2022/12/21 11:04:21;;;;;;;25.13;15.27;;;;;;;6.62;69.23;92787.38;2064639;69;20141;-76
2022/12/21 11:07:24;;;;;;;30.40;15.93;;;;;;;6.41;69.58;92779.47;2064825;69;20145;-76
2022/12/21 11:10:01;;;;;;;25.88;14.40;;;;;;;6.61;70.19;92769.13;2064055;69;20159;-77
2022/12/21 11:12:27;;;;;;;29.25;16.95;;;;;;;6.67;69.40;92761.19;2064735;69;20182;-76
2022/12/21 11:14:54;;;;;;;55.30;32.00;;;;;;;6.61;70.00;92780.31;2064658;69;20165;-74
2022/12/21 11:17:30;;;;;;;45.35;24.33;;;;;;;6.78;68.50;92776.66;2064622;69;20141;-74
2022/12/21 11:20:13;;;;;;;44.08;24.95;;;;;;;6.83;68.99;92767.28;2064653;69;20195;-74
2022/12/21 11:22:43;;;;;;;45.08;27.05;;;;;;;6.27;69.61;92775.59;2064697;69;20140;-74
2022/12/21 11:25:17;;;;;;;40.17;20.75;;;;;;;6.30;70.39;92760.47;2064620;69;20137;-76
2022/12/21 11:27:49;;;;;;;30.67;17.15;;;;;;;6.47;70.64;92763.19;2064692;69;20168;-75
2022/12/21 11:30:24;;;;;;;32.13;19.02;;;;;;;6.58;69.58;92759.09;2066633;69;20140;-76
2022/12/21 11:32:52;;;;;;;25.55;15.60;;;;;;;6.87;68.98;92754.31;2068042;69;20491;-76
2022/12/21 11:35:36;;;;;;;29.42;17.42;;;;;;;6.88;68.53;92749.47;2068018;69;20251;-75
2022/12/21 11:38:03;;;;;;;;;;;;;;;6.97;68.13;92743.16;2068290;69;20149;-77
2022/12/21 11:40:29;;;;;;;34.67;20.08;;;;;;;6.95;68.56;92751.38;2067848;69;20062;-76
2022/12/21 11:42:58;;;;;;;31.27;18.58;;;;;;;7.05;67.95;92745.78;2067997;69;20213;-76
2022/12/21 11:45:48;;;;;;;31.63;19.95;;;;;;;7.10;67.71;92736.38;2067907;69;20143;-77
2022/12/21 11:48:20;;;;;;;34.90;22.40;;;;;;;7.07;67.62;92735.50;2068166;69;20177;-75
2022/12/21 11:51:00;;;;;;;40.33;23.25;;;;;;;7.32;67.26;92731.66;2068066;69;20152;-76
2022/12/21 11:54:00;;;;;;;35.70;22.42;;;;;;;7.51;67.04;92728.13;2068029;69;20164;-77
2022/12/21 11:56:34;;;;;;;30.60;19.30;;;;;;;7.37;66.34;92719.44;2059159;69;20146;-76
2022/12/21 11:59:29;;;;;;;44.97;25.95;;;;;;;7.02;67.06;92724.59;2068892;69;20543;-75
2022/12/21 12:02:22;;;;;;;44.50;26.23;;;;;;;7.32;67.25;92718.41;2064749;69;20133;-74
2022/12/21 12:05:07;;;;;;;43.20;24.58;;;;;;;7.46;66.93;92720.75;2069780;69;20221;-74
2022/12/21 12:07:58;;;;;;;41.35;24.92;;;;;;;7.14;66.94;92720.59;2068337;69;20145;-74